Terminal Aerodrome Forecast
Issued by NWS

Home | Current Version | Previous Version | Text Only | Print | Product List | Glossary On
Versions: 1 2 3 4 5 6 7 8 9 10 11 12 13 14 15 16 17 18 19 20 21 22
000
FTUS43 KABR 221700
TAFATY
TAF
KATY 221734Z 2218/2318 VRB04KT P6SM BKN029
     FM230600 06007KT P6SM BKN080 OVC110
     FM231000 07005KT 4SM BR OVC007=

USA.gov is the U.S. government's official web portal to all federal, state and local government web resources and services.